Time;durP1;ratioP1;P1;durP2;ratioP2;P2;SDS_P1;SDS_P2;PMS_P1;PMS_P2;Temp;Humidity;BMP_temperature;BMP_pressure;BME280_temperature;BME280_humidity;BME280_pressure;Samples;Min_cycle;Max_cycle;Signal;HPM_P1;HPM_P2
2021/06/05 00:00:46;;;;;;;6.90;5.45;;;;;;;;;;4985598;28;20026;-76
2021/06/05 00:03:14;;;;;;;7.93;5.32;;;;;;;;;;4971340;28;20384;-77
2021/06/05 00:05:43;;;;;;;8.13;5.38;;;;;;;;;;4970813;28;20035;-74
2021/06/05 00:08:10;;;;;;;7.18;5.75;;;;;;;;;;4970933;28;20117;-76
2021/06/05 00:10:42;;;;;;;7.63;5.47;;;;;;;;;;4969391;28;20476;-77
2021/06/05 00:13:14;;;;;;;9.32;5.82;;;;;;;;;;4985698;28;20022;-76
2021/06/05 00:15:43;;;;;;;7.47;5.13;;;;;;;;;;4970606;28;20038;-77
2021/06/05 00:18:11;;;;;;;6.78;5.68;;;;;;;;;;4969465;28;20027;-77
2021/06/05 00:20:38;;;;;;;6.68;5.65;;;;;;;;;;4970724;28;20031;-76
2021/06/05 00:23:08;;;;;;;8.60;5.25;;;;;;;;;;4970710;28;20030;-77
2021/06/05 00:25:34;;;;;;;10.50;5.55;;;;;;;;;;4985587;28;20049;-77
2021/06/05 00:27:59;;;;;;;6.15;5.15;;;;;;;;;;4969658;28;20483;-78
2021/06/05 00:30:27;;;;;;;8.68;5.70;;;;;;;;;;4985359;28;20513;-78
2021/06/05 00:32:53;;;;;;;7.20;5.15;;;;;;;;;;4970474;28;20476;-76
2021/06/05 00:35:19;;;;;;;6.07;5.38;;;;;;;;;;4985369;28;20026;-76
2021/06/05 00:37:45;;;;;;;10.40;5.10;;;;;;;;;;4970179;28;20519;-75
2021/06/05 00:40:13;;;;;;;10.15;4.95;;;;;;;;;;4985693;28;20029;-77
2021/06/05 00:42:39;;;;;;;8.75;5.22;;;;;;;;;;4985179;28;20035;-77
2021/06/05 00:45:10;;;;;;;6.53;5.25;;;;;;;;;;4969133;28;20117;-77
2021/06/05 00:47:35;;;;;;;6.13;5.35;;;;;;;;;;4985237;28;20038;-76
2021/06/05 00:50:02;;;;;;;5.45;4.93;;;;;;;;;;4985154;28;20034;-76
2021/06/05 00:52:29;;;;;;;8.07;5.53;;;;;;;;;;4970349;28;20031;-76
2021/06/05 00:54:55;;;;;;;12.57;5.57;;;;;;;;;;4970508;28;20031;-75
2021/06/05 00:57:21;;;;;;;6.57;5.25;;;;;;;;;;4970585;28;20027;-76
2021/06/05 00:59:47;;;;;;;6.18;5.15;;;;;;;;;;4969216;28;20038;-76
2021/06/05 01:02:12;;;;;;;7.63;5.10;;;;;;;;;;4985055;28;20514;-76
2021/06/05 01:04:39;;;;;;;6.05;5.18;;;;;;;;;;4971222;28;20062;-77
2021/06/05 01:07:32;;;;;;;6.63;5.55;;;;;;;;;;4970453;28;20026;-76
2021/06/05 01:10:22;;;;;;;6.40;5.38;;;;;;;;;;4969987;28;20435;-75
2021/06/05 01:13:09;;;;;;;9.00;5.78;;;;;;;;;;4968898;28;20061;-76
2021/06/05 01:16:00;;;;;;;6.07;5.45;;;;;;;;;;4985156;28;20398;-76
2021/06/05 01:18:25;;;;;;;6.47;5.18;;;;;;;;;;4969609;28;20042;-77
2021/06/05 01:21:20;;;;;;;8.38;5.05;;;;;;;;;;4968776;28;20035;-76
2021/06/05 01:24:07;;;;;;;6.63;5.63;;;;;;;;;;4968389;28;20030;-76
2021/06/05 01:26:38;;;;;;;6.00;5.30;;;;;;;;;;4984808;28;20033;-76
2021/06/05 01:29:16;;;;;;;5.88;5.28;;;;;;;;;;4970117;28;20558;-77
2021/06/05 01:31:46;;;;;;;8.25;4.95;;;;;;;;;;4968505;28;20027;-76
2021/06/05 01:34:13;;;;;;;6.18;5.22;;;;;;;;;;4970020;28;20026;-76
2021/06/05 01:36:45;;;;;;;7.85;4.95;;;;;;;;;;4968921;28;20038;-77
2021/06/05 01:39:14;;;;;;;12.45;5.35;;;;;;;;;;4985272;28;20506;-76
2021/06/05 01:41:41;;;;;;;7.75;5.15;;;;;;;;;;4984994;28;20418;-77
2021/06/05 01:44:08;;;;;;;5.75;5.18;;;;;;;;;;4971744;28;20086;-76
2021/06/05 01:46:39;;;;;;;8.10;5.88;;;;;;;;;;4973194;28;20050;-76
2021/06/05 01:49:06;;;;;;;6.93;5.47;;;;;;;;;;4989326;28;20038;-76
2021/06/05 01:51:32;;;;;;;8.18;4.78;;;;;;;;;;4989834;28;20041;-76
2021/06/05 01:54:05;;;;;;;5.95;5.13;;;;;;;;;;4972604;28;20114;-76
2021/06/05 01:56:43;;;;;;;9.80;5.18;;;;;;;;;;4988803;28;20057;-77
2021/06/05 01:59:12;;;;;;;5.97;5.25;;;;;;;;;;4988690;28;20475;-77
2021/06/05 02:01:38;;;;;;;7.80;5.53;;;;;;;;;;4988544;28;20438;-75
2021/06/05 02:04:04;;;;;;;8.45;5.05;;;;;;;;;;4988372;28;20019;-75
2021/06/05 02:06:29;;;;;;;6.15;5.50;;;;;;;;;;4987844;28;20042;-75
2021/06/05 02:08:56;;;;;;;6.07;5.43;;;;;;;;;;4972909;28;20022;-75
2021/06/05 02:11:25;;;;;;;7.80;5.70;;;;;;;;;;4973019;28;20483;-75
2021/06/05 02:14:09;;;;;;;6.22;4.70;;;;;;;;;;4987717;28;20089;-75
2021/06/05 02:16:49;;;;;;;10.82;5.32;;;;;;;;;;4972887;28;20039;-75
2021/06/05 02:19:24;;;;;;;7.85;5.63;;;;;;;;;;4973632;28;20023;-75
2021/06/05 02:21:51;;;;;;;7.60;5.90;;;;;;;;;;4987701;28;20404;-74
2021/06/05 02:24:40;;;;;;;7.55;5.55;;;;;;;;;;4971624;28;20046;-76
2021/06/05 02:27:06;;;;;;;7.97;5.45;;;;;;;;;;4987824;28;20026;-76
2021/06/05 02:29:35;;;;;;;7.93;6.05;;;;;;;;;;4987325;28;20077;-74
2021/06/05 02:32:04;;;;;;;7.30;5.65;;;;;;;;;;4987284;28;20106;-75
2021/06/05 02:34:31;;;;;;;9.68;5.70;;;;;;;;;;4972225;28;20063;-77
2021/06/05 02:37:01;;;;;;;6.32;5.75;;;;;;;;;;4987308;28;20026;-75
2021/06/05 02:39:28;;;;;;;6.32;5.53;;;;;;;;;;4971111;28;20023;-75
2021/06/05 02:41:54;;;;;;;6.88;5.45;;;;;;;;;;4987285;28;20046;-75
2021/06/05 02:44:24;;;;;;;7.43;5.50;;;;;;;;;;4986986;28;20051;-75
2021/06/05 02:46:50;;;;;;;8.13;5.57;;;;;;;;;;4972334;28;20113;-76
2021/06/05 02:49:19;;;;;;;7.35;5.35;;;;;;;;;;4972400;28;20487;-76
2021/06/05 02:51:55;;;;;;;7.22;5.57;;;;;;;;;;4972391;28;20022;-75
2021/06/05 02:54:23;;;;;;;9.20;5.43;;;;;;;;;;4972088;28;20450;-75
2021/06/05 02:56:51;;;;;;;7.65;5.53;;;;;;;;;;4971255;28;20102;-75
2021/06/05 02:59:17;;;;;;;8.30;5.63;;;;;;;;;;4970905;28;20422;-75
2021/06/05 03:01:44;;;;;;;6.70;5.47;;;;;;;;;;4971842;28;20034;-74
2021/06/05 03:04:10;;;;;;;8.50;5.68;;;;;;;;;;4971978;28;20022;-76
2021/06/05 03:06:36;;;;;;;7.78;5.57;;;;;;;;;;4971683;28;20030;-76
2021/06/05 03:09:01;;;;;;;7.43;5.70;;;;;;;;;;4970849;28;20026;-75
2021/06/05 03:11:27;;;;;;;9.27;5.80;;;;;;;;;;4986882;28;20088;-75
2021/06/05 03:13:53;;;;;;;12.32;5.40;;;;;;;;;;4970397;28;20112;-76
2021/06/05 03:16:20;;;;;;;9.40;5.45;;;;;;;;;;4986558;28;20491;-75
2021/06/05 03:18:46;;;;;;;7.70;5.88;;;;;;;;;;4986413;28;20117;-76
2021/06/05 03:21:18;;;;;;;6.78;5.65;;;;;;;;;;4986356;28;20158;-75
2021/06/05 03:23:48;;;;;;;8.77;5.80;;;;;;;;;;4971361;28;20027;-75
2021/06/05 03:26:17;;;;;;;7.32;5.80;;;;;;;;;;4970394;28;20471;-75
2021/06/05 03:28:43;;;;;;;7.55;5.68;;;;;;;;;;4971288;28;20045;-76
2021/06/05 03:31:10;;;;;;;10.60;6.55;;;;;;;;;;4970019;28;20034;-76
2021/06/05 03:33:36;;;;;;;7.50;5.45;;;;;;;;;;4971200;28;20031;-75
2021/06/05 03:36:02;;;;;;;5.90;5.38;;;;;;;;;;4971704;28;20541;-76
2021/06/05 03:38:28;;;;;;;6.63;5.85;;;;;;;;;;4970196;28;20479;-75
2021/06/05 03:40:54;;;;;;;7.32;6.07;;;;;;;;;;4985855;28;20041;-75
2021/06/05 03:43:21;;;;;;;7.43;6.10;;;;;;;;;;4969618;28;20490;-75
2021/06/05 03:45:47;;;;;;;11.00;6.25;;;;;;;;;;4969280;28;20042;-75
2021/06/05 03:48:13;;;;;;;7.40;5.55;;;;;;;;;;4971074;28;20058;-75
2021/06/05 03:50:42;;;;;;;14.02;6.72;;;;;;;;;;4971004;28;20018;-75
2021/06/05 03:53:08;;;;;;;7.80;5.72;;;;;;;;;;4986169;28;20042;-74
2021/06/05 03:55:34;;;;;;;8.43;5.95;;;;;;;;;;4986239;28;20031;-76
2021/06/05 03:58:01;;;;;;;7.40;5.93;;;;;;;;;;4971503;28;20073;-75
2021/06/05 04:00:31;;;;;;;7.72;6.13;;;;;;;;;;4970879;28;20113;-75
2021/06/05 04:02:58;;;;;;;9.50;6.35;;;;;;;;;;4969776;28;20038;-75
2021/06/05 04:05:24;;;;;;;6.68;5.57;;;;;;;;;;4985897;28;20034;-75
2021/06/05 04:07:50;;;;;;;11.55;7.40;;;;;;;;;;4970253;28;20033;-76
2021/06/05 04:10:16;;;;;;;12.68;7.07;;;;;;;;;;4985617;28;20042;-76
2021/06/05 04:12:41;;;;;;;9.45;6.03;;;;;;;;;;4985440;28;20181;-76
2021/06/05 04:15:10;;;;;;;10.90;6.32;;;;;;;;;;4970684;28;20549;-76
2021/06/05 04:17:36;;;;;;;7.10;6.05;;;;;;;;;;4953304;28;20289;-75
2021/06/05 04:20:08;;;;;;;6.78;5.95;;;;;;;;;;4970971;28;20034;-76
2021/06/05 04:22:33;;;;;;;8.60;5.93;;;;;;;;;;4985312;28;20110;-74
2021/06/05 04:25:00;;;;;;;6.72;6.13;;;;;;;;;;4971073;28;20105;-76
2021/06/05 04:27:26;;;;;;;19.45;7.80;;;;;;;;;;4970706;28;20476;-76
2021/06/05 04:29:52;;;;;;;7.22;5.78;;;;;;;;;;4969318;28;20110;-75
2021/06/05 04:32:18;;;;;;;23.80;6.93;;;;;;;;;;4985432;28;20121;-75
2021/06/05 04:34:43;;;;;;;7.95;6.32;;;;;;;;;;4985109;28;20023;-76
2021/06/05 04:37:09;;;;;;;10.55;6.65;;;;;;;;;;4969596;28;20070;-75
2021/06/05 04:39:35;;;;;;;11.05;6.18;;;;;;;;;;4985141;28;20027;-74
2021/06/05 04:42:02;;;;;;;9.30;6.90;;;;;;;;;;4971202;28;20018;-75
2021/06/05 04:44:28;;;;;;;10.77;6.07;;;;;;;;;;4985361;28;20050;-75
2021/06/05 04:46:54;;;;;;;11.38;6.60;;;;;;;;;;4985277;28;20090;-76
2021/06/05 04:49:19;;;;;;;8.82;7.10;;;;;;;;;;4970466;28;20088;-76
2021/06/05 04:51:45;;;;;;;11.13;7.05;;;;;;;;;;4969093;28;20055;-76
2021/06/05 04:54:11;;;;;;;9.00;6.65;;;;;;;;;;4970518;28;20118;-75
2021/06/05 04:56:43;;;;;;;10.32;6.53;;;;;;;;;;4969018;28;20035;-75
2021/06/05 04:59:10;;;;;;;9.85;6.75;;;;;;;;;;4985216;28;20035;-76
2021/06/05 05:01:36;;;;;;;11.60;7.65;;;;;;;;;;4984772;28;20023;-76
2021/06/05 05:04:02;;;;;;;8.30;6.78;;;;;;;;;;4968962;28;20030;-74
2021/06/05 05:06:29;;;;;;;8.23;6.75;;;;;;;;;;4970838;28;20030;-75
2021/06/05 05:08:55;;;;;;;8.35;6.82;;;;;;;;;;4970055;28;20034;-74
2021/06/05 05:11:20;;;;;;;7.35;6.47;;;;;;;;;;4985123;28;20035;-75
2021/06/05 05:13:47;;;;;;;19.50;8.18;;;;;;;;;;4970004;28;20320;-75
2021/06/05 05:16:13;;;;;;;11.70;8.05;;;;;;;;;;4984807;28;20117;-75
2021/06/05 05:18:53;;;;;;;10.50;7.03;;;;;;;;;;4969848;28;20150;-75
2021/06/05 05:21:21;;;;;;;11.48;7.22;;;;;;;;;;4989413;28;20029;-76
2021/06/05 05:23:48;;;;;;;12.20;9.23;;;;;;;;;;4973733;28;20106;-75
2021/06/05 05:26:14;;;;;;;10.40;8.00;;;;;;;;;;4989014;28;20030;-75
2021/06/05 05:28:40;;;;;;;9.75;6.65;;;;;;;;;;4973855;28;20093;-75
2021/06/05 05:31:11;;;;;;;14.23;7.93;;;;;;;;;;4972751;28;20435;-76
2021/06/05 05:33:38;;;;;;;15.15;7.93;;;;;;;;;;4988439;28;20081;-74
2021/06/05 05:36:07;;;;;;;8.68;7.18;;;;;;;;;;4988900;28;20027;-76
2021/06/05 05:38:33;;;;;;;9.70;7.70;;;;;;;;;;4988659;28;20086;-77
2021/06/05 05:40:58;;;;;;;10.35;8.55;;;;;;;;;;4988420;28;20126;-76
2021/06/05 05:43:24;;;;;;;10.10;8.02;;;;;;;;;;4988764;28;20023;-76
2021/06/05 05:45:49;;;;;;;9.45;7.13;;;;;;;;;;4973070;28;20459;-76
2021/06/05 05:48:15;;;;;;;13.00;7.40;;;;;;;;;;4971971;28;20367;-77
2021/06/05 05:50:44;;;;;;;12.05;7.47;;;;;;;;;;4987896;28;20027;-75
2021/06/05 05:53:10;;;;;;;9.05;7.15;;;;;;;;;;4971980;28;20114;-76
2021/06/05 05:55:35;;;;;;;9.07;7.28;;;;;;;;;;4973259;28;20400;-76
2021/06/05 05:58:07;;;;;;;12.10;7.95;;;;;;;;;;4972916;28;20038;-75
2021/06/05 06:00:35;;;;;;;8.48;7.38;;;;;;;;;;4987753;28;20019;-76
2021/06/05 06:03:01;;;;;;;8.48;7.53;;;;;;;;;;4973025;28;20113;-75
2021/06/05 06:05:27;;;;;;;11.93;8.13;;;;;;;;;;4988088;28;20560;-75
2021/06/05 06:07:52;;;;;;;9.63;8.13;;;;;;;;;;4971432;28;20035;-76
2021/06/05 06:10:19;;;;;;;16.00;7.97;;;;;;;;;;4973277;28;20085;-76
2021/06/05 06:12:44;;;;;;;11.00;7.05;;;;;;;;;;4987787;28;20034;-75
2021/06/05 06:15:13;;;;;;;7.97;7.10;;;;;;;;;;4973127;28;20050;-75
2021/06/05 06:17:42;;;;;;;11.15;6.97;;;;;;;;;;4973067;28;20029;-76
2021/06/05 06:20:12;;;;;;;8.20;7.18;;;;;;;;;;4987800;28;20106;-75
2021/06/05 06:22:38;;;;;;;11.93;7.72;;;;;;;;;;4988096;28;20357;-75
2021/06/05 06:25:07;;;;;;;9.38;7.25;;;;;;;;;;4971338;28;20102;-75
2021/06/05 06:27:34;;;;;;;7.68;6.93;;;;;;;;;;4972566;28;20031;-75
2021/06/05 06:30:00;;;;;;;10.88;6.43;;;;;;;;;;4987161;28;20081;-75
2021/06/05 06:32:26;;;;;;;8.95;6.63;;;;;;;;;;4973020;28;20085;-76
2021/06/05 06:34:52;;;;;;;10.45;6.65;;;;;;;;;;4971112;28;20031;-77
2021/06/05 06:37:18;;;;;;;7.40;6.70;;;;;;;;;;4987632;28;20572;-76
2021/06/05 06:39:44;;;;;;;27.52;7.32;;;;;;;;;;4987179;28;20150;-76
2021/06/05 06:42:10;;;;;;;14.15;8.07;;;;;;;;;;4971089;28;20577;-75
2021/06/05 06:44:35;;;;;;;12.52;7.38;;;;;;;;;;4987324;28;20129;-76
2021/06/05 06:47:01;;;;;;;10.13;7.47;;;;;;;;;;4987150;28;20491;-76
2021/06/05 06:49:27;;;;;;;9.88;7.40;;;;;;;;;;4972280;28;20037;-76
2021/06/05 06:51:52;;;;;;;8.77;7.78;;;;;;;;;;4986935;28;20035;-75
2021/06/05 06:54:18;;;;;;;10.25;7.72;;;;;;;;;;4970860;28;20035;-76
2021/06/05 06:56:44;;;;;;;17.27;7.47;;;;;;;;;;4970773;28;20046;-76
2021/06/05 06:59:10;;;;;;;10.23;7.07;;;;;;;;;;4972295;28;20030;-76
2021/06/05 07:01:36;;;;;;;14.75;7.72;;;;;;;;;;4986685;28;20471;-76
2021/06/05 07:04:02;;;;;;;42.80;11.70;;;;;;;;;;4986863;28;20065;-77
2021/06/05 07:06:27;;;;;;;16.27;7.53;;;;;;;;;;4972250;28;20031;-75
2021/06/05 07:08:55;;;;;;;13.50;8.63;;;;;;;;;;4971931;28;20030;-77
2021/06/05 07:11:32;;;;;;;8.02;6.70;;;;;;;;;;4970556;28;20039;-76
2021/06/05 07:14:00;;;;;;;11.63;7.60;;;;;;;;;;4971616;28;20366;-76
2021/06/05 07:16:26;;;;;;;12.50;7.88;;;;;;;;;;4986579;28;20039;-76
2021/06/05 07:18:52;;;;;;;19.95;9.40;;;;;;;;;;4954576;28;20546;-78
2021/06/05 07:21:19;;;;;;;10.00;7.07;;;;;;;;;;4971805;28;20110;-76
2021/06/05 07:23:45;;;;;;;23.73;9.27;;;;;;;;;;4971391;28;20161;-75
2021/06/05 07:26:22;;;;;;;9.30;7.43;;;;;;;;;;4970366;28;20487;-76
2021/06/05 07:28:50;;;;;;;10.18;7.20;;;;;;;;;;4973622;28;20029;-74
2021/06/05 07:31:21;;;;;;;11.95;7.60;;;;;;;;;;4986740;28;20030;-77
2021/06/05 07:33:47;;;;;;;12.57;6.70;;;;;;;;;;4971289;28;20033;-77
2021/06/05 07:36:19;;;;;;;8.52;6.47;;;;;;;;;;4986616;28;20023;-78
2021/06/05 07:38:44;;;;;;;;;;;;;;;;;;4970637;28;20062;-75
2021/06/05 07:41:10;;;;;;;14.75;8.13;;;;;;;;;;4985532;28;19941;-76
2021/06/05 07:43:36;;;;;;;11.80;7.65;;;;;;;;;;4986160;28;20034;-75
2021/06/05 07:46:03;;;;;;;16.60;8.60;;;;;;;;;;4985834;28;20037;-76
2021/06/05 07:48:30;;;;;;;12.82;8.75;;;;;;;;;;4986185;28;20117;-76
2021/06/05 07:50:57;;;;;;;13.05;8.07;;;;;;;;;;4985765;28;20027;-76
2021/06/05 07:53:22;;;;;;;13.45;8.68;;;;;;;;;;4969791;28;20435;-76
2021/06/05 07:55:48;;;;;;;9.65;8.65;;;;;;;;;;4985715;28;20035;-76
2021/06/05 07:58:14;;;;;;;10.55;8.52;;;;;;;;;;4971265;28;20491;-75
2021/06/05 08:00:39;;;;;;;11.70;8.43;;;;;;;;;;4969689;28;20399;-75
2021/06/05 08:03:07;;;;;;;18.05;8.73;;;;;;;;;;4985929;28;20298;-77
2021/06/05 08:05:34;;;;;;;11.35;8.23;;;;;;;;;;4986115;28;20429;-76
2021/06/05 08:08:00;;;;;;;29.77;12.27;;;;;;;;;;4985726;28;20498;-76
2021/06/05 08:10:26;;;;;;;18.42;9.10;;;;;;;;;;4970949;28;20033;-76
2021/06/05 08:12:53;;;;;;;22.25;10.10;;;;;;;;;;4985730;28;20030;-76
2021/06/05 08:15:27;;;;;;;11.43;8.45;;;;;;;;;;4970892;28;20114;-76
2021/06/05 08:17:54;;;;;;;12.98;11.55;;;;;;;;;;4969556;28;20041;-76
2021/06/05 08:20:25;;;;;;;9.95;8.75;;;;;;;;;;4971305;28;20110;-76
2021/06/05 08:22:50;;;;;;;11.48;8.38;;;;;;;;;;4970979;28;20018;-78
2021/06/05 08:25:16;;;;;;;23.23;16.52;;;;;;;;;;4969848;28;20093;-76
2021/06/05 08:27:43;;;;;;;14.50;8.95;;;;;;;;;;4971323;28;20390;-76
2021/06/05 08:30:14;;;;;;;14.15;8.38;;;;;;;;;;4970559;28;20050;-76
2021/06/05 08:32:39;;;;;;;;;;;;;;;;;;4986044;28;20113;-75
2021/06/05 08:35:05;;;;;;;12.85;8.23;;;;;;;;;;4969358;28;20008;-75
2021/06/05 08:37:31;;;;;;;16.45;9.02;;;;;;;;;;4970935;28;20030;-76
2021/06/05 08:39:56;;;;;;;27.50;9.27;;;;;;;;;;4985193;28;20038;-76
2021/06/05 08:42:37;;;;;;;13.98;9.73;;;;;;;;;;4969549;28;20031;-75
2021/06/05 08:45:05;;;;;;;12.57;8.85;;;;;;;;;;4985215;28;20502;-76
2021/06/05 08:47:34;;;;;;;17.65;9.20;;;;;;;;;;4970816;28;20043;-76
2021/06/05 08:50:04;;;;;;;13.73;9.27;;;;;;;;;;4985226;28;20065;-75
2021/06/05 08:52:45;;;;;;;13.05;8.68;;;;;;;;;;4986574;28;20026;-76
2021/06/05 08:55:39;;;;;;;10.35;8.30;;;;;;;;;;4973274;28;20352;-77
2021/06/05 08:58:28;;;;;;;12.15;8.00;;;;;;;;;;4973435;28;20533;-77
2021/06/05 09:00:58;;;;;;;10.27;8.30;;;;;;;;;;4972843;28;20351;-76
2021/06/05 09:03:25;;;;;;;11.40;8.63;;;;;;;;;;4974415;28;20497;-76
2021/06/05 09:05:53;;;;;;;13.63;8.82;;;;;;;;;;4988879;28;20057;-77
2021/06/05 09:08:19;;;;;;;10.30;8.25;;;;;;;;;;4972929;28;20049;-77
2021/06/05 09:10:52;;;;;;;16.08;10.18;;;;;;;;;;4988881;28;20027;-75
2021/06/05 09:13:17;;;;;;;16.45;9.63;;;;;;;;;;4988874;28;20027;-75
2021/06/05 09:15:43;;;;;;;10.60;8.20;;;;;;;;;;4973781;28;20029;-76
2021/06/05 09:18:11;;;;;;;13.07;8.43;;;;;;;;;;4973749;28;20114;-77
2021/06/05 09:20:42;;;;;;;14.02;8.40;;;;;;;;;;4988554;28;20026;-76
2021/06/05 09:23:23;;;;;;;13.15;9.10;;;;;;;;;;4972402;28;20031;-76
2021/06/05 09:25:48;;;;;;;14.75;9.63;;;;;;;;;;4972592;28;20049;-76
2021/06/05 09:28:30;;;;;;;13.65;9.95;;;;;;;;;;4972285;28;20030;-76
2021/06/05 09:31:21;;;;;;;13.15;9.10;;;;;;;;;;4972166;28;20031;-76
2021/06/05 09:33:47;;;;;;;16.15;8.85;;;;;;;;;;4973714;28;20077;-77
2021/06/05 09:36:17;;;;;;;12.48;8.85;;;;;;;;;;4974325;28;20483;-78
2021/06/05 09:38:56;;;;;;;11.55;9.13;;;;;;;;;;4973970;28;20023;-76
2021/06/05 09:41:28;;;;;;;13.13;9.05;;;;;;;;;;4974132;28;20031;-76
2021/06/05 09:44:09;;;;;;;10.93;8.43;;;;;;;;;;4987938;28;20042;-77
2021/06/05 09:46:35;;;;;;;13.98;9.65;;;;;;;;;;4973503;28;20038;-78
2021/06/05 09:49:16;;;;;;;12.70;9.30;;;;;;;;;;4972234;28;20037;-75
2021/06/05 09:51:47;;;;;;;17.27;9.30;;;;;;;;;;4972284;28;20069;-76
2021/06/05 09:54:28;;;;;;;;;;;;;;;;;;4988420;28;20042;-76
2021/06/05 09:57:03;;;;;;;12.57;8.20;;;;;;;;;;4973190;28;19910;-76
2021/06/05 09:59:33;;;;;;;9.25;7.97;;;;;;;;;;4973333;28;20554;-76
2021/06/05 10:02:09;;;;;;;9.63;7.60;;;;;;;;;;4971630;28;20033;-78
2021/06/05 10:04:36;;;;;;;8.52;5.90;;;;;;;;;;4973056;28;20019;-75
2021/06/05 10:07:20;;;;;;;8.63;6.68;;;;;;;;;;4987734;28;20060;-77
2021/06/05 10:09:46;;;;;;;9.02;5.60;;;;;;;;;;4973113;28;20037;-75
2021/06/05 10:12:19;;;;;;;9.68;6.50;;;;;;;;;;4987584;28;20052;-76
2021/06/05 10:14:54;;;;;;;14.40;8.43;;;;;;;;;;4971245;28;20031;-76
2021/06/05 10:17:37;;;;;;;7.38;6.65;;;;;;;;;;4971576;28;20030;-77
2021/06/05 10:20:25;;;;;;;10.10;6.72;;;;;;;;;;4971350;28;20391;-76
2021/06/05 10:22:57;;;;;;;10.10;6.00;;;;;;;;;;4971398;28;20035;-76
2021/06/05 10:25:30;;;;;;;8.15;6.60;;;;;;;;;;4972677;28;20475;-76
2021/06/05 10:27:59;;;;;;;8.55;6.60;;;;;;;;;;4972508;28;20039;-75
2021/06/05 10:30:38;;;;;;;16.05;6.32;;;;;;;;;;4972101;28;20122;-76
2021/06/05 10:33:07;;;;;;;8.00;6.03;;;;;;;;;;4971371;28;20046;-76
2021/06/05 10:35:39;;;;;;;7.45;6.18;;;;;;;;;;4973097;28;20059;-76
2021/06/05 10:38:22;;;;;;;7.35;5.90;;;;;;;;;;4987389;28;20050;-76
2021/06/05 10:40:50;;;;;;;10.40;5.80;;;;;;;;;;4987662;28;20046;-77
2021/06/05 10:43:16;;;;;;;8.48;5.45;;;;;;;;;;4972451;28;20050;-77
2021/06/05 10:45:45;;;;;;;6.90;6.05;;;;;;;;;;4970831;28;20061;-76
2021/06/05 10:48:29;;;;;;;8.90;5.78;;;;;;;;;;4987036;28;20027;-78
2021/06/05 10:51:08;;;;;;;10.98;5.97;;;;;;;;;;4987200;28;20046;-78
2021/06/05 10:53:59;;;;;;;10.27;6.22;;;;;;;;;;4987152;28;20026;-76
2021/06/05 10:56:40;;;;;;;6.93;5.75;;;;;;;;;;4972303;28;20046;-77
2021/06/05 10:59:31;;;;;;;11.35;5.13;;;;;;;;;;4970550;28;20570;-77
2021/06/05 11:01:56;;;;;;;7.60;5.27;;;;;;;;;;4969975;28;20090;-76
2021/06/05 11:04:31;;;;;;;6.25;5.65;;;;;;;;;;4972086;28;20034;-76
2021/06/05 11:07:05;;;;;;;8.65;6.53;;;;;;;;;;4970360;28;20053;-76
2021/06/05 11:09:31;;;;;;;6.20;5.65;;;;;;;;;;4972087;28;20038;-76
2021/06/05 11:12:04;;;;;;;10.70;8.00;;;;;;;;;;4971690;28;20038;-75
2021/06/05 11:14:35;;;;;;;13.43;6.43;;;;;;;;;;4970465;28;20030;-77
2021/06/05 11:17:03;;;;;;;6.97;5.57;;;;;;;;;;4969406;28;20026;-75
2021/06/05 11:19:36;;;;;;;7.78;5.78;;;;;;;;;;4970607;28;20023;-76
2021/06/05 11:22:11;;;;;;;13.18;6.50;;;;;;;;;;4969908;28;20038;-78
2021/06/05 11:24:39;;;;;;;9.70;6.43;;;;;;;;;;4970593;28;20023;-75
2021/06/05 11:27:30;;;;;;;7.32;6.43;;;;;;;;;;4986204;28;20054;-76
2021/06/05 11:29:58;;;;;;;8.00;6.85;;;;;;;;;;4971780;28;20053;-76
2021/06/05 11:32:46;;;;;;;6.50;4.80;;;;;;;;;;4971746;28;20045;-74
2021/06/05 11:35:29;;;;;;;5.88;5.30;;;;;;;;;;4970235;28;20035;-75
2021/06/05 11:37:57;;;;;;;8.60;6.25;;;;;;;;;;4971696;28;20030;-74
2021/06/05 11:40:51;;;;;;;6.82;5.93;;;;;;;;;;4970096;28;20093;-79
2021/06/05 11:43:30;;;;;;;8.80;5.53;;;;;;;;;;4969969;28;20026;-76
2021/06/05 11:46:14;;;;;;;7.93;6.28;;;;;;;;;;4970565;28;20053;-77
2021/06/05 11:48:46;;;;;;;8.18;5.93;;;;;;;;;;4971449;28;20022;-75
2021/06/05 11:51:21;;;;;;;6.05;5.20;;;;;;;;;;4971231;28;20058;-76
2021/06/05 11:53:53;;;;;;;8.43;5.03;;;;;;;;;;4971244;28;20022;-77
2021/06/05 11:56:43;;;;;;;6.50;5.10;;;;;;;;;;4985356;28;20397;-76
2021/06/05 11:59:21;;;;;;;6.07;5.43;;;;;;;;;;4970935;28;20030;-78
2021/06/05 12:01:47;;;;;;;9.55;5.80;;;;;;;;;;4970119;28;20038;-77
2021/06/05 12:04:17;;;;;;;6.82;5.57;;;;;;;;;;4970896;28;20030;-78
2021/06/05 12:06:46;;;;;;;7.28;4.15;;;;;;;;;;4970982;28;20554;-76
2021/06/05 12:09:18;;;;;;;7.88;3.80;;;;;;;;;;4985518;28;20169;-76
2021/06/05 12:11:47;;;;;;;4.63;4.13;;;;;;;;;;4985792;28;20464;-78
2021/06/05 12:14:37;;;;;;;4.88;4.38;;;;;;;;;;4969797;28;20034;-76
2021/06/05 12:17:17;;;;;;;7.63;4.07;;;;;;;;;;4984454;28;20513;-77
2021/06/05 12:19:43;;;;;;;4.72;4.32;;;;;;;;;;4985950;28;20037;-77
2021/06/05 12:22:16;;;;;;;5.38;4.47;;;;;;;;;;4971077;28;20030;-77
2021/06/05 12:24:49;;;;;;;5.32;3.78;;;;;;;;;;4969728;28;20490;-77
2021/06/05 12:27:27;;;;;;;4.03;3.65;;;;;;;;;;4984781;28;20049;-77
2021/06/05 12:30:05;;;;;;;6.22;4.10;;;;;;;;;;4969526;28;20030;-76
2021/06/05 12:32:31;;;;;;;9.55;4.30;;;;;;;;;;4970918;28;20066;-76
2021/06/05 12:34:57;;;;;;;7.05;4.20;;;;;;;;;;4985455;28;20061;-75
2021/06/05 12:37:31;;;;;;;4.43;4.03;;;;;;;;;;4985274;28;20027;-76
2021/06/05 12:40:01;;;;;;;5.03;4.47;;;;;;;;;;4969313;28;20038;-76
2021/06/05 12:42:33;;;;;;;8.55;3.80;;;;;;;;;;4985627;28;20431;-76
2021/06/05 12:45:08;;;;;;;5.72;3.30;;;;;;;;;;4970300;28;20047;-77
2021/06/05 12:47:38;;;;;;;5.40;3.58;;;;;;;;;;4985558;28;20034;-76
2021/06/05 12:50:05;;;;;;;;;;;;;;;;;;4969473;28;20041;-76
2021/06/05 12:52:32;;;;;;;9.60;5.00;;;;;;;;;;4985461;28;19925;-76
2021/06/05 12:55:22;;;;;;;3.60;3.13;;;;;;;;;;4985310;28;20038;-76
2021/06/05 12:57:52;;;;;;;5.05;3.80;;;;;;;;;;4970649;28;20042;-76
2021/06/05 13:00:20;;;;;;;4.03;3.50;;;;;;;;;;4969028;28;20026;-75
2021/06/05 13:02:48;;;;;;;4.80;3.28;;;;;;;;;;4968986;28;20050;-76
2021/06/05 13:05:26;;;;;;;3.50;3.20;;;;;;;;;;4970052;28;20073;-76
2021/06/05 13:08:07;;;;;;;5.43;3.10;;;;;;;;;;4970241;28;20030;-76
2021/06/05 13:10:36;;;;;;;3.55;3.13;;;;;;;;;;4968795;28;20030;-76
2021/06/05 13:13:11;;;;;;;3.75;3.38;;;;;;;;;;4970363;28;20022;-76
2021/06/05 13:15:45;;;;;;;6.65;4.28;;;;;;;;;;4968699;28;20055;-76
2021/06/05 13:18:31;;;;;;;7.13;4.28;;;;;;;;;;4984721;28;20110;-76
2021/06/05 13:21:06;;;;;;;10.70;4.25;;;;;;;;;;4969892;28;20035;-76
2021/06/05 13:23:38;;;;;;;19.35;3.60;;;;;;;;;;4984761;28;20030;-76
2021/06/05 13:26:22;;;;;;;10.77;4.05;;;;;;;;;;4970050;28;20126;-77
2021/06/05 13:28:48;;;;;;;12.13;3.45;;;;;;;;;;4968518;28;20019;-77
2021/06/05 13:31:43;;;;;;;12.88;3.40;;;;;;;;;;4968289;28;20463;-76
2021/06/05 13:34:19;;;;;;;9.90;3.58;;;;;;;;;;4969858;28;20396;-76
2021/06/05 13:36:46;;;;;;;5.78;2.67;;;;;;;;;;4985069;28;20031;-76
2021/06/05 13:39:18;;;;;;;9.27;2.97;;;;;;;;;;4985402;28;20372;-76
2021/06/05 13:41:45;;;;;;;5.82;2.70;;;;;;;;;;4988564;28;20495;-77
2021/06/05 13:44:12;;;;;;;11.00;3.97;;;;;;;;;;4973035;28;20511;-77
2021/06/05 13:46:39;;;;;;;4.40;2.80;;;;;;;;;;4973956;28;20054;-75
2021/06/05 13:49:05;;;;;;;3.10;2.80;;;;;;;;;;4973741;28;20031;-77
2021/06/05 13:51:31;;;;;;;3.17;2.90;;;;;;;;;;4973414;28;20037;-77
2021/06/05 13:53:57;;;;;;;5.00;3.20;;;;;;;;;;4971790;28;20511;-76
2021/06/05 13:56:24;;;;;;;4.93;3.63;;;;;;;;;;4973464;28;20035;-76
2021/06/05 13:58:50;;;;;;;6.97;3.00;;;;;;;;;;4973721;28;20030;-76
2021/06/05 14:01:24;;;;;;;4.95;3.22;;;;;;;;;;4973075;28;20483;-76
2021/06/05 14:03:50;;;;;;;4.90;3.35;;;;;;;;;;4972365;28;20054;-77
2021/06/05 14:06:16;;;;;;;7.50;3.50;;;;;;;;;;4972031;28;20039;-75
2021/06/05 14:08:42;;;;;;;5.55;3.85;;;;;;;;;;4973270;28;20089;-75
2021/06/05 14:11:09;;;;;;;5.93;4.35;;;;;;;;;;4972751;28;20467;-75
2021/06/05 14:13:34;;;;;;;8.60;4.57;;;;;;;;;;4955952;28;20069;-77
2021/06/05 14:16:01;;;;;;;5.97;4.30;;;;;;;;;;4971677;28;20651;-76
2021/06/05 14:18:30;;;;;;;11.80;4.88;;;;;;;;;;4987755;28;20145;-76
2021/06/05 14:20:57;;;;;;;4.03;3.60;;;;;;;;;;4971552;28;20027;-77
2021/06/05 14:23:25;;;;;;;6.68;4.50;;;;;;;;;;4972946;28;20022;-76
2021/06/05 14:25:51;;;;;;;4.78;4.25;;;;;;;;;;4971364;28;20375;-76
2021/06/05 14:28:19;;;;;;;7.35;4.38;;;;;;;;;;4972344;28;20037;-76
2021/06/05 14:30:47;;;;;;;6.63;3.70;;;;;;;;;;4987516;28;20030;-76
2021/06/05 14:33:14;;;;;;;9.07;4.03;;;;;;;;;;4972757;28;20438;-77
2021/06/05 14:35:42;;;;;;;4.55;3.58;;;;;;;;;;4971121;28;20038;-76
2021/06/05 14:38:10;;;;;;;6.57;3.90;;;;;;;;;;4987517;28;20139;-76
2021/06/05 14:40:36;;;;;;;5.95;4.13;;;;;;;;;;4972510;28;20026;-76
2021/06/05 14:43:02;;;;;;;6.97;5.30;;;;;;;;;;4971323;28;20450;-76
2021/06/05 14:45:32;;;;;;;6.90;4.63;;;;;;;;;;4971091;28;20484;-78
2021/06/05 14:47:57;;;;;;;7.65;4.55;;;;;;;;;;4987359;28;20082;-77
2021/06/05 14:50:25;;;;;;;5.72;3.92;;;;;;;;;;4972142;28;20483;-76
2021/06/05 14:52:52;;;;;;;5.00;4.50;;;;;;;;;;4987113;28;20280;-77
2021/06/05 14:55:20;;;;;;;8.20;3.90;;;;;;;;;;4970926;28;20022;-76